Hurst, Texas
Current Conditions -  °F | °C
As of 2:53 AM on Thursday 27 Nov 2014 (Local Time) from KDFW Reporting Station
Clear Clear  
Wind Chill: 35°   Ceiling: Unl
Heat Index: 41°   Visibility: 10mi
Dew Point: 27°   Wind: 9mph
Humidity: 57%   Direction: 350°N
Pressure: 30.46"   Gusts: NA
Location:  32.84°N, 97.19°W
Report Text: KDFW 270853Z 35008KT 10SM CLR 05/M03 A3046 RMK AO2 SLP312 T00501028 53023
Loading
Personal Weather Stations






























Interactive Weather Map New forecast layout! Learn more

10-Day Weather Forecast

Advertisements
Track Severe Weather on mobile